createdAt,value
2022-07-27T00:04:57.694Z,1.20
2022-07-27T00:10:19.947Z,1.17
2022-07-27T00:15:42.548Z,1.27
2022-07-27T00:21:05.056Z,1.38
2022-07-27T00:26:27.242Z,0.90
2022-07-27T00:31:49.660Z,1.02
2022-07-27T00:37:12.125Z,1.27
2022-07-27T00:42:34.516Z,1.13
2022-07-27T00:47:57.615Z,0.80
2022-07-27T00:53:20.346Z,1.20
2022-07-27T00:58:44.991Z,1.50
2022-07-27T01:04:08.227Z,1.00
2022-07-27T01:09:49.361Z,1.60
2022-07-27T01:15:12.453Z,1.30
2022-07-27T01:20:34.836Z,1.30
2022-07-27T01:25:57.164Z,1.10
2022-07-27T01:31:19.761Z,0.90
2022-07-27T01:36:42.343Z,1.10
2022-07-27T01:42:04.762Z,1.07
2022-07-27T01:47:27.191Z,1.60
2022-07-27T01:52:49.540Z,1.20
2022-07-27T01:58:12.240Z,1.20
2022-07-27T02:03:36.026Z,1.10
2022-07-27T02:08:58.534Z,1.37
2022-07-27T02:14:21.452Z,1.30
2022-07-27T02:19:44.322Z,1.40
2022-07-27T02:25:08.045Z,1.30
2022-07-27T02:30:30.280Z,1.30
2022-07-27T02:35:52.793Z,1.40
2022-07-27T02:41:15.390Z,1.37
2022-07-27T02:46:37.689Z,1.23
2022-07-27T02:52:00.065Z,1.10
2022-07-27T02:57:22.384Z,1.40
2022-07-27T03:02:49.305Z,1.40
2022-07-27T03:08:11.563Z,1.60
2022-07-27T03:13:34.110Z,1.60
2022-07-27T03:18:58.007Z,1.53
2022-07-27T03:24:20.530Z,1.53
2022-07-27T03:29:42.739Z,1.60
2022-07-27T03:35:05.408Z,1.10
2022-07-27T03:40:29.753Z,1.23
2022-07-27T03:45:52.099Z,1.30
2022-07-27T03:51:14.548Z,1.60
2022-07-27T03:56:36.963Z,1.60
2022-07-27T04:01:59.148Z,1.30
2022-07-27T04:07:21.417Z,1.27
2022-07-27T04:12:44.095Z,1.60
2022-07-27T04:18:09.096Z,1.30
2022-07-27T04:23:36.189Z,1.30
2022-07-27T04:29:00.100Z,1.30
2022-07-27T04:34:22.314Z,1.60
2022-07-27T04:39:44.533Z,1.17
2022-07-27T04:45:07.767Z,1.07
2022-07-27T04:50:30.131Z,1.10
2022-07-27T04:55:54.113Z,1.03
2022-07-27T05:01:16.266Z,1.50
2022-07-27T05:06:38.608Z,1.80
2022-07-27T05:12:00.644Z,1.40
2022-07-27T05:17:22.878Z,1.53
2022-07-27T05:22:45.414Z,1.53
2022-07-27T05:28:07.697Z,1.30
2022-07-27T05:33:30.219Z,1.20
2022-07-27T05:38:52.432Z,1.40
2022-07-27T05:44:14.628Z,1.40
2022-07-27T05:49:37.165Z,1.23
2022-07-27T05:54:59.520Z,1.47
2022-07-27T06:00:22.020Z,1.50
2022-07-27T06:05:44.189Z,1.37
2022-07-27T06:11:06.614Z,1.13
2022-07-27T06:16:29.387Z,1.20
2022-07-27T06:21:53.948Z,1.20
2022-07-27T06:27:16.947Z,1.20
2022-07-27T06:32:39.479Z,1.37
2022-07-27T06:38:02.900Z,1.60
2022-07-27T06:43:27.925Z,1.30
2022-07-27T06:48:50.454Z,1.30
2022-07-27T06:54:12.893Z,1.07
2022-07-27T06:59:43.452Z,1.20
2022-07-27T07:05:06.677Z,1.10
2022-07-27T07:10:29.051Z,1.30
2022-07-27T07:15:51.727Z,0.90
2022-07-27T07:21:16.384Z,0.90
2022-07-27T07:26:39.573Z,1.13
2022-07-27T07:32:02.128Z,1.00
2022-07-27T07:37:24.728Z,0.87
2022-07-27T07:43:03.412Z,1.00
2022-07-27T07:48:25.887Z,0.73
2022-07-27T07:53:48.047Z,0.90
2022-07-27T07:59:10.580Z,1.00
2022-07-27T08:04:33.246Z,0.90
2022-07-27T08:09:55.378Z,0.80
2022-07-27T08:15:18.052Z,1.10
2022-07-27T08:20:40.504Z,0.82
2022-07-27T08:26:07.448Z,1.70
2022-07-27T08:31:51.621Z,0.82
2022-07-27T08:37:15.553Z,0.93
2022-07-27T08:42:40.668Z,0.70
2022-07-27T08:48:05.136Z,1.02
2022-07-27T08:53:52.391Z,0.90
2022-07-27T08:59:14.763Z,1.08
2022-07-27T09:04:40.636Z,0.95
2022-07-27T09:10:05.140Z,0.82
2022-07-27T09:15:34.126Z,0.98
2022-07-27T09:21:13.618Z,0.52
2022-07-27T09:26:37.347Z,0.85
2022-07-27T09:31:59.984Z,0.95
2022-07-27T09:37:27.972Z,0.70
2022-07-27T09:43:52.193Z,0.75
2022-07-27T09:48:54.964Z,1.10
2022-07-27T09:54:18.271Z,1.00
2022-07-27T09:59:41.396Z,1.05
2022-07-27T10:05:04.333Z,0.73
2022-07-27T10:10:26.928Z,1.02
2022-07-27T10:15:49.941Z,0.73
2022-07-27T10:21:13.192Z,0.70
2022-07-27T10:26:40.815Z,0.98
2022-07-27T10:32:03.395Z,0.80
2022-07-27T10:37:28.732Z,0.90
2022-07-27T10:42:54.685Z,0.93
2022-07-27T10:48:45.991Z,1.25
2022-07-27T10:54:38.593Z,0.95
2022-07-27T11:00:12.404Z,1.33
2022-07-27T11:06:00.262Z,0.80
2022-07-27T11:11:24.248Z,0.82
2022-07-27T11:16:55.485Z,1.23
2022-07-27T11:23:26.488Z,0.90
2022-07-27T11:28:29.657Z,1.05
2022-07-27T11:33:55.629Z,0.90
2022-07-27T11:39:59.280Z,1.33
2022-07-27T11:45:09.062Z,1.00
2022-07-27T11:50:31.358Z,0.90
2022-07-27T11:55:53.503Z,0.90
2022-07-27T12:01:37.058Z,0.90
2022-07-27T12:07:15.347Z,0.98
2022-07-27T12:12:38.337Z,1.08
2022-07-27T12:18:00.748Z,1.00
2022-07-27T12:23:29.624Z,1.02
2022-07-27T12:29:12.689Z,0.90
2022-07-27T12:34:36.250Z,1.00
2022-07-27T12:39:59.272Z,1.13
2022-07-27T12:45:22.211Z,1.13
2022-07-27T12:50:47.302Z,1.15
2022-07-27T12:56:10.401Z,0.98
2022-07-27T13:01:32.674Z,0.90
2022-07-27T13:06:55.332Z,0.93
2022-07-27T13:12:17.819Z,1.02
2022-07-27T13:17:41.349Z,0.80
2022-07-27T13:23:07.447Z,0.80
2022-07-27T13:28:30.095Z,0.90
2022-07-27T13:33:52.799Z,1.05
2022-07-27T13:39:15.889Z,0.95
2022-07-27T13:45:05.665Z,1.15
2022-07-27T13:50:20.498Z,1.00
2022-07-27T13:55:44.613Z,0.90
2022-07-27T14:01:07.968Z,0.98
2022-07-27T14:06:30.463Z,1.80
2022-07-27T14:11:53.334Z,1.13
2022-07-27T14:17:15.871Z,1.45
2022-07-27T14:22:38.040Z,2.05
2022-07-27T14:28:00.858Z,1.20
2022-07-27T14:33:24.149Z,1.02
2022-07-27T14:38:46.684Z,1.02
2022-07-27T14:44:09.168Z,1.50
2022-07-27T14:49:31.664Z,1.30
2022-07-27T14:54:59.602Z,1.08
2022-07-27T15:00:21.859Z,0.90
2022-07-27T15:05:50.291Z,0.80
2022-07-27T15:11:13.426Z,0.90
2022-07-27T15:16:35.664Z,0.80
2022-07-27T15:21:58.286Z,1.05
2022-07-27T15:27:20.662Z,0.90
2022-07-27T15:32:43.057Z,1.00
2022-07-27T15:38:05.861Z,0.90
2022-07-27T15:43:28.227Z,1.20
2022-07-27T15:48:50.691Z,0.82
2022-07-27T15:54:14.092Z,0.80
2022-07-27T15:59:36.475Z,1.15
2022-07-27T16:04:58.849Z,0.80
2022-07-27T16:10:21.068Z,0.80
2022-07-27T16:16:02.557Z,1.15
2022-07-27T16:21:25.998Z,0.90
2022-07-27T16:26:48.372Z,0.77
2022-07-27T16:32:12.263Z,1.10
2022-07-27T16:37:34.638Z,0.77
2022-07-27T16:42:57.792Z,1.40
2022-07-27T16:48:21.510Z,1.00
2022-07-27T16:53:45.813Z,0.57
2022-07-27T16:59:07.977Z,0.70
2022-07-27T17:04:30.517Z,1.25
2022-07-27T17:09:53.182Z,0.90
2022-07-27T17:15:15.659Z,0.80
2022-07-27T17:20:38.380Z,0.82
2022-07-27T17:26:00.591Z,1.08
2022-07-27T17:31:23.552Z,0.95
2022-07-27T17:36:46.586Z,0.93
2022-07-27T17:42:09.103Z,0.93
2022-07-27T17:47:31.659Z,0.85
2022-07-27T17:52:56.489Z,1.05
2022-07-27T17:58:19.017Z,1.25
2022-07-27T18:03:41.751Z,0.90
2022-07-27T18:09:04.366Z,1.58
2022-07-27T18:14:26.619Z,0.98
2022-07-27T18:19:48.874Z,1.00
2022-07-27T18:25:11.915Z,1.27
2022-07-27T18:30:34.587Z,1.50
2022-07-27T18:35:57.200Z,1.48
2022-07-27T18:41:20.621Z,1.00
2022-07-27T18:46:43.014Z,0.95
2022-07-27T18:52:06.471Z,0.77
2022-07-27T18:57:28.674Z,1.35
2022-07-27T19:02:51.695Z,1.15
2022-07-27T19:08:17.961Z,1.40
2022-07-27T19:13:40.671Z,1.63
2022-07-27T19:19:03.771Z,1.42
2022-07-27T19:24:27.461Z,2.00
2022-07-27T19:29:49.619Z,2.00
2022-07-27T19:35:12.486Z,1.60
2022-07-27T19:40:45.400Z,1.30
2022-07-27T19:46:08.588Z,1.60
2022-07-27T19:51:31.781Z,1.45
2022-07-27T19:56:54.118Z,1.40
2022-07-27T20:02:18.503Z,1.20
2022-07-27T20:07:40.913Z,1.00
2022-07-27T20:13:05.175Z,1.40
2022-07-27T20:18:31.077Z,1.47
2022-07-27T20:23:54.641Z,1.40
2022-07-27T20:29:17.092Z,1.43
2022-07-27T20:34:39.607Z,1.30
2022-07-27T20:40:03.408Z,1.30
2022-07-27T20:45:26.118Z,1.50
2022-07-27T20:50:48.581Z,1.63
2022-07-27T20:56:11.092Z,1.87
2022-07-27T21:01:33.967Z,2.00
2022-07-27T21:06:56.779Z,2.20
2022-07-27T21:12:19.300Z,2.33
2022-07-27T21:17:42.441Z,2.40
2022-07-27T21:23:23.622Z,2.00
2022-07-27T21:28:46.079Z,2.20
2022-07-27T21:34:09.024Z,2.23
2022-07-27T21:39:31.785Z,2.07
2022-07-27T21:44:54.200Z,1.97
2022-07-27T21:50:16.552Z,2.37
2022-07-27T21:55:40.809Z,1.83
2022-07-27T22:01:04.042Z,1.83
2022-07-27T22:06:26.431Z,2.00
2022-07-27T22:11:49.169Z,1.87
2022-07-27T22:17:11.631Z,1.73
2022-07-27T22:22:34.388Z,1.70
2022-07-27T22:27:56.824Z,2.00
2022-07-27T22:33:18.969Z,1.90
2022-07-27T22:38:41.131Z,1.70
2022-07-27T22:44:03.409Z,1.90
2022-07-27T22:49:25.634Z,1.93
2022-07-27T22:54:48.228Z,1.77
2022-07-27T23:00:11.234Z,1.70
2022-07-27T23:05:33.565Z,1.80
2022-07-27T23:10:56.208Z,1.90
2022-07-27T23:16:18.711Z,1.87
2022-07-27T23:21:42.170Z,1.97
2022-07-27T23:27:04.927Z,2.30
2022-07-27T23:32:27.029Z,1.90
2022-07-27T23:37:49.211Z,1.90
2022-07-27T23:43:11.776Z,1.90
2022-07-27T23:48:34.049Z,1.63
2022-07-27T23:53:56.733Z,2.23
2022-07-27T23:59:19.090Z,2.33
